Terminal Aerodrome Forecast
Issued by NWS Atlanta, GA

Home | Current Version | Previous Version | Text Only | Print | Product List | Glossary On
Versions: 1 2 3 4 5 6 7 8 9 10 11 12 13 14 15 16 17 18 19 20
000
FTUS42 KFFC 011136
TAFMCN
TAF
KMCN 011136Z 0112/0212 18004KT 5SM BR FEW008
     FM011500 21006KT P6SM SCT015
     FM011600 22008KT P6SM VCSH BKN025
     FM012200 23009KT 4SM -TSRA BKN030CB
     FM012300 23006KT P6SM VCSH OVC040
     FM020200 VRB03KT P6SM SCT060 BKN250=

USA.gov is the U.S. government's official web portal to all federal, state and local government web resources and services.